createdAt,value
2019-02-11T00:00:40.557Z,9.30
2019-02-11T00:03:09.249Z,21.40
2019-02-11T00:05:37.697Z,16.67
2019-02-11T00:08:06.113Z,14.53
2019-02-11T00:10:34.552Z,18.87
2019-02-11T00:13:10.345Z,19.05
2019-02-11T00:15:33.189Z,26.60
2019-02-11T00:18:20.977Z,21.45
2019-02-11T00:20:50.155Z,32.95
2019-02-11T00:23:18.728Z,21.68
2019-02-11T00:25:47.460Z,28.00
2019-02-11T00:28:16.317Z,23.25
2019-02-11T00:30:44.881Z,27.45
2019-02-11T00:33:13.337Z,33.95
2019-02-11T00:35:42.122Z,28.00
2019-02-11T00:38:10.948Z,29.12
2019-02-11T00:40:39.684Z,35.73
2019-02-11T00:43:08.129Z,28.90
2019-02-11T00:45:37.263Z,39.67
2019-02-11T00:48:07.191Z,32.23
2019-02-11T00:50:36.388Z,35.58
2019-02-11T00:53:04.818Z,34.00
2019-02-11T00:55:33.864Z,42.95
2019-02-11T00:58:02.582Z,37.98
2019-02-11T01:00:31.041Z,28.35
2019-02-11T01:02:59.739Z,37.65
2019-02-11T01:05:28.193Z,31.73
2019-02-11T01:07:56.658Z,30.08
2019-02-11T01:10:25.197Z,27.98
2019-02-11T01:12:54.882Z,32.15
2019-02-11T01:15:23.330Z,31.93
2019-02-11T01:17:51.866Z,29.05
2019-02-11T01:20:20.310Z,35.70
2019-02-11T01:22:49.031Z,31.33
2019-02-11T01:25:17.488Z,27.77
2019-02-11T01:27:46.474Z,31.10
2019-02-11T01:30:14.915Z,39.40
2019-02-11T01:32:43.350Z,28.95
2019-02-11T01:35:11.783Z,42.27
2019-02-11T01:37:40.566Z,25.02
2019-02-11T01:40:10.747Z,35.28
2019-02-11T01:42:39.629Z,30.88
2019-02-11T01:45:10.053Z,29.07
2019-02-11T01:47:38.524Z,33.90
2019-02-11T01:50:08.759Z,37.40
2019-02-11T01:52:37.214Z,31.35
2019-02-11T01:55:05.667Z,30.55
2019-02-11T01:57:34.117Z,39.23
2019-02-11T02:00:02.866Z,30.85
2019-02-11T02:02:31.328Z,30.50
2019-02-11T02:05:00.436Z,32.98
2019-02-11T02:07:28.888Z,26.00
2019-02-11T02:09:57.321Z,33.67
2019-02-11T02:12:25.777Z,34.78
2019-02-11T02:14:54.779Z,28.20
2019-02-11T02:17:23.206Z,31.42
2019-02-11T02:19:51.646Z,30.50
2019-02-11T02:22:20.457Z,47.17
2019-02-11T02:24:48.928Z,27.75
2019-02-11T02:27:17.369Z,27.77
2019-02-11T02:29:45.798Z,26.77
2019-02-11T02:32:14.235Z,22.42
2019-02-11T02:34:42.665Z,29.77
2019-02-11T02:37:11.373Z,30.80
2019-02-11T02:39:39.814Z,41.42
2019-02-11T02:42:08.574Z,30.70
2019-02-11T02:44:37.001Z,27.02
2019-02-11T02:47:05.441Z,30.55
2019-02-11T02:49:33.865Z,36.60
2019-02-11T02:52:02.903Z,23.35
2019-02-11T02:54:31.331Z,26.30
2019-02-11T02:56:59.764Z,23.98
2019-02-11T02:59:28.862Z,29.12
2019-02-11T03:01:57.301Z,24.25
2019-02-11T03:04:26.330Z,26.65
2019-02-11T03:06:54.753Z,31.02
2019-02-11T03:09:23.492Z,21.02
2019-02-11T03:11:51.928Z,20.72
2019-02-11T03:14:20.382Z,25.70
2019-02-11T03:16:49.053Z,25.95
2019-02-11T03:19:17.836Z,22.07
2019-02-11T03:21:47.148Z,27.70
2019-02-11T03:24:15.604Z,27.32
2019-02-11T03:26:44.037Z,17.35
2019-02-11T03:29:12.470Z,17.77
2019-02-11T03:31:41.023Z,25.12
2019-02-11T03:34:09.670Z,20.32
2019-02-11T03:36:38.134Z,27.93
2019-02-11T03:39:09.376Z,21.52
2019-02-11T03:41:37.870Z,17.13
2019-02-11T03:44:14.570Z,26.25
2019-02-11T03:46:36.461Z,34.53
2019-02-11T03:49:04.896Z,29.63
2019-02-11T03:51:33.331Z,29.63
2019-02-11T03:54:01.785Z,25.62
2019-02-11T03:56:30.834Z,28.17
2019-02-11T03:58:59.562Z,22.67
2019-02-11T04:01:28.225Z,28.10
2019-02-11T04:03:57.318Z,25.32
2019-02-11T04:06:25.740Z,25.97
2019-02-11T04:08:54.816Z,33.85
2019-02-11T04:11:23.572Z,26.27
2019-02-11T04:13:52.574Z,19.62
2019-02-11T04:16:21.306Z,20.50
2019-02-11T04:18:50.256Z,22.87
2019-02-11T04:21:18.934Z,21.60
2019-02-11T04:23:47.497Z,19.65
2019-02-11T04:26:15.935Z,20.85
2019-02-11T04:28:44.709Z,20.80
2019-02-11T04:31:13.394Z,23.07
2019-02-11T04:33:42.664Z,26.35
2019-02-11T04:36:11.108Z,26.27
2019-02-11T04:38:39.790Z,17.67
2019-02-11T04:41:08.230Z,20.52
2019-02-11T04:43:36.955Z,21.85
2019-02-11T04:46:05.720Z,21.42
2019-02-11T04:48:34.156Z,19.37
2019-02-11T04:51:02.606Z,27.58
2019-02-11T04:53:32.085Z,20.17
2019-02-11T04:56:01.038Z,22.48
2019-02-11T04:58:29.481Z,18.30
2019-02-11T05:00:57.917Z,16.82
2019-02-11T05:03:26.611Z,22.73
2019-02-11T05:05:55.070Z,23.65
2019-02-11T05:08:23.807Z,19.67
2019-02-11T05:10:52.295Z,26.45
2019-02-11T05:13:20.733Z,16.93
2019-02-11T05:15:49.166Z,21.57
2019-02-11T05:18:18.511Z,18.70
2019-02-11T05:20:47.494Z,20.23
2019-02-11T05:23:16.408Z,16.95
2019-02-11T05:25:45.095Z,21.27
2019-02-11T05:28:13.914Z,19.50
2019-02-11T05:30:42.401Z,14.47
2019-02-11T05:33:10.894Z,21.80
2019-02-11T05:35:39.415Z,23.65
2019-02-11T05:38:08.157Z,22.98
2019-02-11T05:40:36.589Z,15.63
2019-02-11T05:43:05.117Z,20.62
2019-02-11T05:45:33.558Z,13.18
2019-02-11T05:48:01.995Z,17.73
2019-02-11T05:50:30.435Z,22.13
2019-02-11T05:52:58.853Z,17.60
2019-02-11T05:55:27.287Z,15.95
2019-02-11T05:57:55.707Z,22.52
2019-02-11T06:00:24.445Z,12.13
2019-02-11T06:02:53.434Z,24.43
2019-02-11T06:05:21.878Z,18.50
2019-02-11T06:07:50.566Z,11.73
2019-02-11T06:10:19.365Z,18.20
2019-02-11T06:12:47.796Z,20.70
2019-02-11T06:15:16.487Z,20.52
2019-02-11T06:17:45.257Z,20.60
2019-02-11T06:20:13.699Z,33.08
2019-02-11T06:22:42.140Z,18.00
2019-02-11T06:25:10.882Z,12.80
2019-02-11T06:27:39.352Z,20.82
2019-02-11T06:30:08.690Z,17.23
2019-02-11T06:32:37.233Z,12.18
2019-02-11T06:35:06.265Z,21.68
2019-02-11T06:37:37.123Z,15.50
2019-02-11T06:40:06.925Z,14.07
2019-02-11T06:42:37.857Z,14.85
2019-02-11T06:45:12.849Z,17.17
2019-02-11T06:47:36.845Z,15.78
2019-02-11T06:50:06.160Z,19.42
2019-02-11T06:52:34.604Z,22.40
2019-02-11T06:55:03.925Z,23.05
2019-02-11T06:57:32.396Z,28.50
2019-02-11T07:00:01.084Z,14.78
2019-02-11T07:02:30.865Z,22.13
2019-02-11T07:04:59.216Z,21.85
2019-02-11T07:07:27.658Z,21.87
2019-02-11T07:09:56.092Z,17.82
2019-02-11T07:12:24.543Z,19.98
2019-02-11T07:14:52.991Z,27.58
2019-02-11T07:17:21.449Z,47.50
2019-02-11T07:19:49.884Z,37.53
2019-02-11T07:22:18.325Z,48.70
2019-02-11T07:24:46.745Z,28.92
2019-02-11T07:27:15.180Z,22.87
2019-02-11T07:29:43.604Z,24.00
2019-02-11T07:32:12.045Z,26.82
2019-02-11T07:34:40.743Z,27.13
2019-02-11T07:37:09.541Z,30.08
2019-02-11T07:39:37.957Z,41.00
2019-02-11T07:42:20.655Z,42.43
2019-02-11T07:44:57.813Z,30.15
2019-02-11T07:47:26.514Z,25.15
2019-02-11T07:49:54.951Z,28.60
2019-02-11T07:52:26.974Z,31.27
2019-02-11T07:54:53.537Z,29.52
2019-02-11T07:57:22.291Z,28.62
2019-02-11T07:59:51.099Z,17.55
2019-02-11T08:02:20.127Z,29.77
2019-02-11T08:04:48.557Z,28.20
2019-02-11T08:07:17.301Z,24.87
2019-02-11T08:09:46.048Z,23.25
2019-02-11T08:12:14.847Z,20.55
2019-02-11T08:14:43.276Z,22.02
2019-02-11T08:17:11.716Z,21.57
2019-02-11T08:19:40.146Z,18.00
2019-02-11T08:22:08.593Z,22.05
2019-02-11T08:24:37.035Z,27.52
2019-02-11T08:27:05.764Z,30.95
2019-02-11T08:29:34.204Z,20.85
2019-02-11T08:32:02.685Z,20.60
2019-02-11T08:34:31.789Z,15.90
2019-02-11T08:37:00.510Z,33.73
2019-02-11T08:39:29.294Z,22.87
2019-02-11T08:41:57.730Z,28.20
2019-02-11T08:44:26.530Z,19.82
2019-02-11T08:46:55.314Z,19.82
2019-02-11T08:49:24.347Z,13.65
2019-02-11T08:51:53.434Z,16.10
2019-02-11T08:54:21.870Z,16.15
2019-02-11T08:56:50.560Z,13.95
2019-02-11T08:59:19.008Z,13.00
2019-02-11T09:01:47.770Z,14.07
2019-02-11T09:04:18.933Z,13.48
2019-02-11T09:06:46.641Z,16.25
2019-02-11T09:09:15.343Z,19.77
2019-02-11T09:11:43.794Z,17.15
2019-02-11T09:14:12.258Z,21.80
2019-02-11T09:16:41.329Z,14.28
2019-02-11T09:19:09.767Z,14.43
2019-02-11T09:21:38.194Z,19.90
2019-02-11T09:24:06.631Z,21.12
2019-02-11T09:26:35.055Z,17.35
2019-02-11T09:29:03.500Z,13.22
2019-02-11T09:31:32.163Z,15.80
2019-02-11T09:34:00.603Z,18.00
2019-02-11T09:36:29.037Z,22.50
2019-02-11T09:38:57.479Z,20.82
2019-02-11T09:41:25.914Z,24.57
2019-02-11T09:43:55.220Z,23.05
2019-02-11T09:46:23.653Z,30.88
2019-02-11T09:48:52.110Z,21.95
2019-02-11T09:51:21.419Z,16.60
2019-02-11T09:53:49.853Z,20.43
2019-02-11T09:56:18.293Z,22.70
2019-02-11T09:58:46.992Z,21.57
2019-02-11T10:01:15.749Z,25.00
2019-02-11T10:03:44.236Z,24.15
2019-02-11T10:06:12.681Z,23.45
2019-02-11T10:08:41.102Z,18.23
2019-02-11T10:11:09.561Z,23.65
2019-02-11T10:13:38.003Z,18.57
2019-02-11T10:16:12.330Z,18.30
2019-02-11T10:18:36.924Z,22.25
2019-02-11T10:21:05.432Z,24.47
2019-02-11T10:23:34.150Z,18.37
2019-02-11T10:26:02.945Z,20.37
2019-02-11T10:28:34.164Z,30.40
2019-02-11T10:31:02.623Z,29.30
2019-02-11T10:33:31.416Z,16.45
2019-02-11T10:35:59.862Z,23.52
2019-02-11T10:38:36.104Z,21.55
2019-02-11T10:40:58.462Z,19.17
2019-02-11T10:43:27.409Z,17.20
2019-02-11T10:45:56.155Z,17.70
2019-02-11T10:48:25.494Z,17.15
2019-02-11T10:50:54.444Z,14.75
2019-02-11T10:53:23.147Z,13.65
2019-02-11T10:55:51.803Z,18.10
2019-02-11T10:58:20.524Z,15.85
2019-02-11T11:00:49.212Z,19.20
2019-02-11T11:03:17.929Z,19.73
2019-02-11T11:05:46.447Z,21.12
2019-02-11T11:08:14.867Z,18.70
2019-02-11T11:10:43.316Z,20.20
2019-02-11T11:13:11.751Z,19.15
2019-02-11T11:15:40.476Z,18.82
2019-02-11T11:18:09.267Z,19.23
2019-02-11T11:20:38.007Z,26.12
2019-02-11T11:23:06.505Z,22.67
2019-02-11T11:25:35.130Z,20.27
2019-02-11T11:28:03.570Z,20.50
2019-02-11T11:30:32.063Z,18.10
2019-02-11T11:33:00.794Z,16.00
2019-02-11T11:35:29.221Z,11.63
2019-02-11T11:37:57.662Z,13.60
2019-02-11T11:40:26.719Z,20.25
2019-02-11T11:42:55.508Z,19.20
2019-02-11T11:45:23.957Z,15.48
2019-02-11T11:47:52.403Z,16.25
2019-02-11T11:50:20.904Z,18.50
2019-02-11T11:52:49.681Z,15.85
2019-02-11T11:55:19.257Z,19.87
2019-02-11T11:57:47.685Z,22.07
2019-02-11T12:00:19.721Z,20.55
2019-02-11T12:05:17.691Z,16.97
2019-02-11T12:07:49.025Z,20.35
2019-02-11T12:10:17.478Z,20.80
2019-02-11T12:12:45.930Z,15.53
2019-02-11T12:15:14.781Z,16.85
2019-02-11T12:17:43.805Z,15.98
2019-02-11T12:20:12.549Z,13.65
2019-02-11T12:22:41.355Z,13.90
2019-02-11T12:25:11.390Z,10.63
2019-02-11T12:27:39.829Z,15.53
2019-02-11T12:30:11.733Z,15.70
2019-02-11T12:32:40.237Z,9.93
2019-02-11T12:35:09.707Z,14.87
2019-02-11T12:37:38.183Z,10.63
2019-02-11T12:40:08.097Z,12.13
2019-02-11T12:42:36.591Z,17.60
2019-02-11T12:45:06.203Z,13.68
2019-02-11T12:47:34.957Z,13.58
2019-02-11T12:50:04.793Z,13.53
2019-02-11T12:52:33.533Z,9.53
2019-02-11T12:55:02.070Z,8.30
2019-02-11T12:57:30.637Z,10.53
2019-02-11T12:59:59.032Z,13.45
2019-02-11T13:02:27.481Z,16.10
2019-02-11T13:04:56.098Z,17.25
2019-02-11T13:07:24.537Z,19.35
2019-02-11T13:09:52.986Z,16.05
2019-02-11T13:12:21.715Z,12.47
2019-02-11T13:14:50.469Z,17.35
2019-02-11T13:17:33.273Z,17.15
2019-02-11T13:20:07.792Z,13.25
2019-02-11T13:22:21.985Z,18.07
2019-02-11T13:24:50.460Z,15.55
2019-02-11T13:27:18.879Z,16.35
2019-02-11T13:29:47.741Z,19.23
2019-02-11T13:32:16.457Z,13.93
2019-02-11T13:34:44.899Z,14.25
2019-02-11T13:37:13.323Z,19.82
2019-02-11T13:39:41.779Z,15.85
2019-02-11T13:42:10.219Z,15.63
2019-02-11T13:44:39.451Z,12.88
2019-02-11T13:47:07.950Z,14.33
2019-02-11T13:49:36.711Z,20.32
2019-02-11T13:52:05.154Z,28.70
2019-02-11T13:54:33.847Z,16.82
2019-02-11T13:57:03.463Z,29.60
2019-02-11T13:59:31.898Z,22.20
2019-02-11T14:02:00.351Z,18.07
2019-02-11T14:04:28.856Z,13.95
2019-02-11T14:06:57.574Z,15.58
2019-02-11T14:09:26.688Z,18.00
2019-02-11T14:11:55.158Z,15.48
2019-02-11T14:14:28.923Z,12.20
2019-02-11T14:16:57.709Z,15.43
2019-02-11T14:19:26.616Z,16.45
2019-02-11T14:21:55.025Z,15.85
2019-02-11T14:24:23.488Z,13.10
2019-02-11T14:26:51.927Z,16.52
2019-02-11T14:29:20.491Z,19.55
2019-02-11T14:31:48.909Z,17.00
2019-02-11T14:34:17.836Z,15.85
2019-02-11T14:36:46.611Z,16.15
2019-02-11T14:39:16.620Z,17.27
2019-02-11T14:41:45.374Z,16.05
2019-02-11T14:44:14.243Z,20.55
2019-02-11T14:46:43.536Z,18.10
2019-02-11T14:49:11.999Z,13.68
2019-02-11T14:51:40.432Z,14.68
2019-02-11T14:54:08.872Z,16.85
2019-02-11T14:56:37.325Z,18.92
2019-02-11T14:59:08.835Z,19.87
2019-02-11T15:01:37.894Z,15.78
2019-02-11T15:04:06.739Z,16.05
2019-02-11T15:06:35.412Z,23.42
2019-02-11T15:09:05.180Z,18.37
2019-02-11T15:11:33.676Z,23.07
2019-02-11T15:14:02.106Z,17.80
2019-02-11T15:16:30.801Z,18.70
2019-02-11T15:18:59.571Z,15.65
2019-02-11T15:21:28.162Z,18.77
2019-02-11T15:23:56.597Z,16.57
2019-02-11T15:26:25.590Z,21.68
2019-02-11T15:28:54.359Z,23.38
2019-02-11T15:31:23.155Z,21.37
2019-02-11T15:33:52.584Z,14.83
2019-02-11T15:36:40.502Z,16.90
2019-02-11T15:39:09.486Z,17.37
2019-02-11T15:41:38.618Z,20.00
2019-02-11T15:44:07.417Z,22.50
2019-02-11T15:46:36.036Z,27.85
2019-02-11T15:49:04.469Z,19.75
2019-02-11T15:51:34.909Z,23.85
2019-02-11T15:54:04.225Z,25.97
2019-02-11T15:56:33.084Z,19.80
2019-02-11T15:59:02.858Z,21.97
2019-02-11T16:01:31.581Z,25.40
2019-02-11T16:04:00.586Z,21.50
2019-02-11T16:06:37.640Z,20.60
2019-02-11T16:09:04.629Z,22.48
2019-02-11T16:11:29.756Z,25.17
2019-02-11T16:13:58.190Z,19.42
2019-02-11T16:16:27.017Z,23.92
2019-02-11T16:18:55.540Z,27.93
2019-02-11T16:21:24.100Z,26.33
2019-02-11T16:23:52.755Z,16.17
2019-02-11T16:26:21.205Z,23.67
2019-02-11T16:28:49.632Z,25.60
2019-02-11T16:31:18.094Z,27.73
2019-02-11T16:33:46.875Z,25.08
2019-02-11T16:36:15.311Z,26.52
2019-02-11T16:38:43.749Z,31.70
2019-02-11T16:41:12.556Z,25.08
2019-02-11T16:43:41.131Z,19.85
2019-02-11T16:46:09.964Z,25.95
2019-02-11T16:48:38.394Z,25.23
2019-02-11T16:51:06.928Z,25.10
2019-02-11T16:53:35.400Z,28.17
2019-02-11T16:56:03.785Z,21.68
2019-02-11T16:58:32.847Z,23.00
2019-02-11T17:01:01.285Z,23.73
2019-02-11T17:03:29.824Z,25.08
2019-02-11T17:05:58.250Z,23.32
2019-02-11T17:08:26.680Z,20.37
2019-02-11T17:10:55.126Z,17.75
2019-02-11T17:13:23.576Z,28.87
2019-02-11T17:15:52.359Z,26.05
2019-02-11T17:18:21.075Z,26.68
2019-02-11T17:20:49.824Z,17.60
2019-02-11T17:23:18.279Z,18.30
2019-02-11T17:25:47.056Z,26.30
2019-02-11T17:28:15.500Z,19.07
2019-02-11T17:30:44.021Z,26.62
2019-02-11T17:33:13.109Z,24.35
2019-02-11T17:35:41.776Z,24.63
2019-02-11T17:38:10.524Z,22.17
2019-02-11T17:40:38.953Z,23.10
2019-02-11T17:43:07.405Z,23.50
2019-02-11T17:45:35.855Z,25.82
2019-02-11T17:48:04.300Z,30.62
2019-02-11T17:50:33.006Z,21.60
2019-02-11T17:53:02.733Z,27.35
2019-02-11T17:55:31.799Z,29.57
2019-02-11T17:58:04.453Z,27.87
2019-02-11T18:00:38.842Z,23.85
2019-02-11T18:03:13.395Z,20.08
2019-02-11T18:05:42.900Z,36.98
2019-02-11T18:08:13.402Z,22.15
2019-02-11T18:10:43.865Z,19.60
2019-02-11T18:13:14.350Z,19.02
2019-02-11T18:15:45.198Z,30.15
2019-02-11T18:18:13.647Z,27.58
2019-02-11T18:20:42.076Z,16.75
2019-02-11T18:23:10.821Z,23.65
2019-02-11T18:25:39.637Z,19.85
2019-02-11T18:28:08.370Z,28.00
2019-02-11T18:30:37.125Z,17.90
2019-02-11T18:33:05.656Z,22.13
2019-02-11T18:35:34.348Z,16.42
2019-02-11T18:38:22.064Z,17.40
2019-02-11T18:40:50.846Z,27.20
2019-02-11T18:43:19.283Z,22.85
2019-02-11T18:45:48.022Z,19.57
2019-02-11T18:48:16.711Z,15.75
2019-02-11T18:50:45.144Z,19.20
2019-02-11T18:53:13.928Z,15.90
2019-02-11T18:55:42.420Z,19.60
2019-02-11T18:58:11.412Z,19.05
2019-02-11T19:00:39.865Z,11.43
2019-02-11T19:03:08.862Z,20.65
2019-02-11T19:05:37.360Z,15.48
2019-02-11T19:08:06.239Z,12.43
2019-02-11T19:10:36.841Z,18.90
2019-02-11T19:13:07.448Z,14.18
2019-02-11T19:15:35.896Z,18.15
2019-02-11T19:18:05.370Z,14.78
2019-02-11T19:20:34.093Z,18.87
2019-02-11T19:23:06.269Z,14.35
2019-02-11T19:25:35.662Z,15.08
2019-02-11T19:28:04.881Z,15.83
2019-02-11T19:30:34.739Z,15.23
2019-02-11T19:33:04.631Z,17.10
2019-02-11T19:35:33.384Z,13.62
2019-02-11T19:38:01.815Z,13.50
2019-02-11T19:40:30.655Z,14.98
2019-02-11T19:42:59.091Z,17.27
2019-02-11T19:45:27.551Z,15.80
2019-02-11T19:47:55.976Z,13.35
2019-02-11T19:50:25.051Z,16.65
2019-02-11T19:52:53.872Z,14.83
2019-02-11T19:55:22.661Z,11.12
2019-02-11T19:57:51.386Z,11.12
2019-02-11T20:00:20.046Z,11.93
2019-02-11T20:02:48.813Z,11.20
2019-02-11T20:05:17.491Z,14.60
2019-02-11T20:07:46.023Z,12.07
2019-02-11T20:10:14.739Z,12.50
2019-02-11T20:12:43.179Z,11.80
2019-02-11T20:15:13.838Z,13.50
2019-02-11T20:17:42.271Z,15.90
2019-02-11T20:20:14.416Z,10.40
2019-02-11T20:22:45.484Z,14.65
2019-02-11T20:25:13.952Z,13.50
2019-02-11T20:27:42.402Z,16.87
2019-02-11T20:30:12.693Z,14.75
2019-02-11T20:32:41.119Z,12.50
2019-02-11T20:35:09.556Z,15.58
2019-02-11T20:37:38.325Z,10.90
2019-02-11T20:40:08.500Z,16.32
2019-02-11T20:42:36.939Z,14.95
2019-02-11T20:45:07.511Z,13.60
2019-02-11T20:47:35.991Z,12.30
2019-02-11T20:50:09.749Z,19.80
2019-02-11T20:52:35.028Z,17.32
2019-02-11T20:55:04.019Z,23.52
2019-02-11T20:57:32.823Z,16.77
2019-02-11T21:00:01.565Z,22.35
2019-02-11T21:02:30.008Z,13.62
2019-02-11T21:04:58.445Z,26.12
2019-02-11T21:07:26.937Z,22.25
2019-02-11T21:09:55.630Z,19.87
2019-02-11T21:12:24.092Z,14.55
2019-02-11T21:14:52.500Z,15.60
2019-02-11T21:17:21.226Z,16.45
2019-02-11T21:19:49.951Z,16.02
2019-02-11T21:22:18.537Z,17.32
2019-02-11T21:24:47.020Z,19.67
2019-02-11T21:27:16.136Z,22.27
2019-02-11T21:29:44.582Z,18.70
2019-02-11T21:32:13.076Z,25.05
2019-02-11T21:34:41.796Z,25.52
2019-02-11T21:37:10.259Z,14.73
2019-02-11T21:39:39.014Z,12.35
2019-02-11T21:42:09.752Z,15.88
2019-02-11T21:44:38.087Z,17.37
2019-02-11T21:47:06.531Z,20.95
2019-02-11T21:49:34.996Z,20.37
2019-02-11T21:52:04.657Z,20.10
2019-02-11T21:54:33.352Z,14.80
2019-02-11T21:57:01.834Z,24.52
2019-02-11T21:59:30.314Z,16.75
2019-02-11T22:01:58.770Z,17.50
2019-02-11T22:04:27.750Z,16.85
2019-02-11T22:06:56.458Z,14.30
2019-02-11T22:09:24.902Z,20.82
2019-02-11T22:11:53.366Z,9.78
2019-02-11T22:14:21.802Z,13.28
2019-02-11T22:16:50.248Z,13.60
2019-02-11T22:19:19.040Z,13.18
2019-02-11T22:21:49.656Z,10.28
2019-02-11T22:24:18.378Z,12.95
2019-02-11T22:26:47.164Z,13.18
2019-02-11T22:29:15.916Z,18.30
2019-02-11T22:31:44.360Z,15.45
2019-02-11T22:34:12.802Z,13.53
2019-02-11T22:36:41.481Z,14.23
2019-02-11T22:39:10.219Z,14.45
2019-02-11T22:41:38.977Z,10.60
2019-02-11T22:44:07.764Z,13.65
2019-02-11T22:46:36.528Z,14.28
2019-02-11T22:49:05.373Z,18.12
2019-02-11T22:51:35.546Z,12.35
2019-02-11T22:54:04.132Z,18.50
2019-02-11T22:56:32.589Z,11.97
2019-02-11T22:59:01.373Z,16.45
2019-02-11T23:01:29.826Z,20.72
2019-02-11T23:03:58.944Z,13.05
2019-02-11T23:06:27.381Z,20.77
2019-02-11T23:08:56.111Z,8.35
2019-02-11T23:11:24.571Z,8.93
2019-02-11T23:13:53.052Z,9.03
2019-02-11T23:16:21.864Z,12.37
2019-02-11T23:18:50.356Z,9.58
2019-02-11T23:21:18.788Z,10.58
2019-02-11T23:23:47.597Z,8.15
2019-02-11T23:26:16.298Z,13.25
2019-02-11T23:28:44.754Z,13.93
2019-02-11T23:31:13.478Z,13.53
2019-02-11T23:33:42.141Z,11.63
2019-02-11T23:36:10.922Z,10.48
2019-02-11T23:38:39.351Z,10.68
2019-02-11T23:41:07.784Z,11.20
2019-02-11T23:43:36.896Z,9.75
2019-02-11T23:46:05.337Z,10.08
2019-02-11T23:48:34.232Z,12.68
2019-02-11T23:51:02.742Z,13.72
2019-02-11T23:53:31.193Z,12.20
2019-02-11T23:55:59.640Z,13.72
2019-02-11T23:58:41.730Z,15.00
